createdAt,value
2018-11-21T20:20:15.396Z,8.00
2018-11-21T20:22:44.659Z,7.90
2018-11-21T20:25:14.770Z,7.10
2018-11-21T20:27:49.527Z,7.20
2018-11-21T20:30:25.609Z,7.20
2018-11-21T20:32:55.178Z,7.10
2018-11-21T20:35:23.826Z,6.70
2018-11-21T20:37:52.831Z,6.90
2018-11-21T20:40:27.540Z,7.00
2018-11-21T20:42:56.700Z,6.70
2018-11-21T20:45:26.793Z,6.80
2018-11-21T20:47:56.699Z,6.80
2018-11-21T20:50:25.982Z,7.00
2018-11-21T20:52:54.653Z,7.00
2018-11-21T20:55:25.454Z,6.80
2018-11-21T20:57:54.840Z,6.90
2018-11-21T21:00:25.709Z,6.90
2018-11-21T21:02:54.961Z,7.00
2018-11-21T21:05:26.204Z,6.80
2018-11-21T21:08:11.125Z,6.70
2018-11-21T21:10:47.363Z,6.70
2018-11-21T21:13:16.320Z,6.80
2018-11-21T21:15:45.544Z,6.80
2018-11-21T21:18:14.838Z,6.70
2018-11-21T21:20:45.413Z,6.80
2018-11-21T21:23:14.071Z,6.60
2018-11-21T21:25:43.395Z,6.70
2018-11-21T21:28:12.871Z,6.70
2018-11-21T21:30:42.305Z,6.50
2018-11-21T21:33:11.793Z,6.40
2018-11-21T21:35:41.657Z,6.30
2018-11-21T21:38:10.987Z,6.50
2018-11-21T21:40:40.293Z,6.40
2018-11-21T21:43:09.942Z,6.30
2018-11-21T21:45:39.198Z,6.20
2018-11-21T21:48:08.649Z,5.90
2018-11-21T21:50:39.260Z,5.90
2018-11-21T21:53:07.906Z,6.30
2018-11-21T21:55:37.689Z,6.20
2018-11-21T21:58:06.309Z,6.00
2018-11-21T22:00:35.404Z,5.90
2018-11-21T22:03:04.841Z,6.10
2018-11-21T22:05:34.008Z,6.00
2018-11-21T22:08:03.000Z,6.30
2018-11-21T22:10:34.056Z,6.20
2018-11-21T22:13:03.486Z,6.40
2018-11-21T22:15:38.083Z,6.50
2018-11-21T22:18:11.257Z,6.60
2018-11-21T22:20:40.199Z,7.00
2018-11-21T22:23:10.111Z,6.90
2018-11-21T22:25:38.741Z,6.70
2018-11-21T22:28:08.213Z,6.40
2018-11-21T22:30:38.239Z,6.40
2018-11-21T22:33:07.463Z,6.50
2018-11-21T22:35:37.962Z,6.20
2018-11-21T22:40:45.287Z,6.10
2018-11-21T22:43:14.383Z,6.30
2018-11-21T22:45:43.690Z,6.20
2018-11-21T22:48:13.052Z,6.20
2018-11-21T22:50:51.209Z,6.20
2018-11-21T22:53:20.194Z,6.30
2018-11-21T22:55:48.870Z,6.50
2018-11-21T22:58:17.493Z,6.70
2018-11-21T23:00:56.072Z,6.60
2018-11-21T23:03:25.448Z,6.80
2018-11-21T23:05:54.474Z,6.70
2018-11-21T23:08:26.396Z,6.60
2018-11-21T23:10:55.322Z,6.30
2018-11-21T23:13:24.556Z,6.20
2018-11-21T23:15:53.510Z,6.00
2018-11-21T23:18:26.864Z,5.80
2018-11-21T23:20:55.843Z,5.90
2018-11-21T23:23:25.404Z,5.90
2018-11-21T23:25:54.407Z,6.00
2018-11-21T23:28:23.090Z,6.00
2018-11-21T23:30:51.700Z,6.20
2018-11-21T23:33:22.019Z,6.10
2018-11-21T23:35:50.978Z,6.20
2018-11-21T23:38:20.208Z,6.20
2018-11-21T23:40:48.855Z,6.10
2018-11-21T23:43:18.725Z,5.80
2018-11-21T23:45:47.666Z,5.70
2018-11-21T23:48:16.964Z,5.80
2018-11-21T23:50:46.404Z,5.80
2018-11-21T23:53:17.099Z,5.90
2018-11-21T23:55:46.378Z,6.20
2018-11-21T23:58:15.594Z,6.20
